Detall de PIREP

Printer-friendly versionPDF version

[2012/10/05 18:41:00]
Flight IATA:CT0001
Pilot Number:044
Company ICAO:CAT
Aircraft Type:BE20/A
PAX:4
Departing Airport: LEBL
Destination Airport: LEVC
Alternate Airport:LEAL
Online: VATSIM
Route:LOTOS B28 SOPET
Flight Level:F150
No Slew and time accel
No pause
Crash detect
Detect pilot in Cockpit between each 30 and 45 minutes
18:41 Zero fuel Weight: 8913 Lbs, Fuel Weight: 1816 Lbs
18:41 VATSIM:LEBL 051830Z 05003KT 340V100 9999 SCT017 22/18 Q1019 NOSIG
18:41 VATSIM:LEVC 051830Z 08003KT 030V120 9999 FEW030 22/18 Q1018 NOSIG
18:41 VOICE CATALONIAN
18:42 Parking Brakes off
19:01 Take-off
19:01 Take off Weight: 10687 Lbs
19:01 Wind: 072º @ 003 Knots Heading: 246º
19:01 POS N41º 17´ 05´´ E002º 04´ 55´´
19:01 Flaps:1 at 132 Knots
19:01 Gear Up: 132 Knots
19:01 Flaps:0 at 132 Knots
19:16 Wind:103º@008 Knots Heading: 233º Ground Speed: 220 Knots Altitude 11391 ft
19:21 TOC
19:21 Fuel Weight: 1545 Lb
19:31 Wind:094º@006 Knots Heading: 228º Ground Speed: 262 Knots Altitude 15121 ft
19:35 TOD
19:35 Fuel Weight: 1381 Lb
19:46 Wind:159º@002 Knots Heading: 259º Ground Speed: 168 Knots Altitude 5003 ft
20:01 Wind:176º@001 Knots Heading: 295º Ground Speed: 194 Knots Altitude 1397 ft
20:03 Flaps:1 at 161 Knots
20:03 Gear Down: 151 Knots
20:03 Flaps:2 at 150 Knots
20:05 TouchDown:Rate -98 ft/min Speed: 98 Knots
20:05 VATSIM:LEVC 052000Z VRB01KT 9999 FEW030 22/19 Q1019 NOSIG
20:05 Land
20:05 Wind:154º@001 Knots
20:05 Heading: 116º
20:05 Flight Duration: 01:04
20:05 Landing Weight: 10107 Lbs
20:05 POS N39º 29´ 14´´ W000º 28´ 33´´
20:07 Parking brakes on
20:07 Block to Block Duration: 01:25
20:07 Final Fuel: 1181 Lbls
20:07 Spent Fuel: 634 Lbls
20:07 Flight Length: 226 NM
20:07 TOD Land Length: 97 NM

Exportar CSV

Powered by Drupal - Modified by Danger4k